Time;durP1;ratioP1;P1;durP2;ratioP2;P2;SDS_P1;SDS_P2;PMS_P1;PMS_P2;Temp;Humidity;BMP_temperature;BMP_pressure;BME280_temperature;BME280_humidity;BME280_pressure;Samples;Min_cycle;Max_cycle;Signal;HPM_P1;HPM_P2
2023/08/03 00:01:23;;;;;;;3.72;2.20;;;16.70;99.90;;;;;;5089331;28;20035;-44
2023/08/03 00:03:48;;;;;;;7.45;2.20;;;16.70;99.90;;;;;;5089184;28;20020;-44
2023/08/03 00:06:14;;;;;;;8.48;2.40;;;16.70;99.90;;;;;;5088992;28;20081;-46
2023/08/03 00:08:39;;;;;;;7.88;2.72;;;16.70;99.90;;;;;;5089020;28;20052;-44
2023/08/03 00:11:05;;;;;;;4.85;2.53;;;16.70;99.90;;;;;;5089504;28;20393;-46
2023/08/03 00:13:30;;;;;;;6.15;2.50;;;16.70;99.90;;;;;;5089385;28;20020;-46
2023/08/03 00:15:56;;;;;;;6.60;2.47;;;16.60;99.90;;;;;;5089254;28;20032;-45
2023/08/03 00:18:22;;;;;;;10.00;2.80;;;16.60;99.90;;;;;;5070688;28;20107;-46
2023/08/03 00:20:50;;;;;;;4.95;2.50;;;16.60;99.90;;;;;;5089032;28;20028;-46
2023/08/03 00:23:15;;;;;;;7.70;2.22;;;16.60;99.90;;;;;;5088997;28;20012;-47
2023/08/03 00:25:41;;;;;;;7.80;2.40;;;16.60;99.90;;;;;;5088761;28;20024;-44
2023/08/03 00:28:06;;;;;;;3.97;2.38;;;16.50;99.90;;;;;;5089228;28;20423;-44
2023/08/03 00:30:32;;;;;;;6.20;2.25;;;16.50;99.90;;;;;;5088805;28;20047;-45
2023/08/03 00:32:58;;;;;;;10.07;2.20;;;16.50;99.90;;;;;;5070451;28;20020;-46
2023/08/03 00:35:23;;;;;;;4.30;2.22;;;16.40;99.90;;;;;;5088678;28;20035;-44
2023/08/03 00:37:49;;;;;;;7.38;1.98;;;16.40;99.90;;;;;;5088905;28;20028;-43
2023/08/03 00:40:14;;;;;;;4.15;1.92;;;16.40;99.90;;;;;;5088556;28;20107;-44
2023/08/03 00:42:40;;;;;;;8.35;2.05;;;16.40;99.90;;;;;;5088610;28;20028;-43
2023/08/03 00:45:09;;;;;;;6.97;2.03;;;16.40;99.90;;;;;;5088574;28;20028;-44
2023/08/03 00:47:34;;;;;;;3.60;2.00;;;16.40;99.90;;;;;;5088883;28;20507;-44
2023/08/03 00:50:00;;;;;;;5.38;1.98;;;16.30;99.90;;;;;;5070853;28;20099;-45
2023/08/03 00:52:25;;;;;;;6.57;1.60;;;16.30;99.90;;;;;;5088641;28;20043;-44
2023/08/03 00:54:51;;;;;;;7.40;2.22;;;16.30;99.90;;;;;;5088209;28;20024;-44
2023/08/03 00:57:17;;;;;;;7.18;1.60;;;16.30;99.90;;;;;;5088672;28;20082;-45
2023/08/03 00:59:44;;;;;;;5.70;1.83;;;16.30;99.90;;;;;;5088850;28;20093;-43
2023/08/03 01:02:09;;;;;;;6.05;1.88;;;16.30;99.90;;;;;;5088627;28;20039;-43
2023/08/03 01:04:35;;;;;;;5.85;2.17;;;16.20;99.90;;;;;;5088128;28;20492;-43
2023/08/03 01:07:00;;;;;;;5.10;2.72;;;16.20;99.90;;;;;;5070784;28;20440;-45
2023/08/03 01:09:26;;;;;;;10.00;2.58;;;16.30;99.90;;;;;;5088634;28;20141;-45
2023/08/03 01:11:52;;;;;;;6.68;1.73;;;16.20;99.90;;;;;;5092219;28;20012;-45
2023/08/03 01:14:17;;;;;;;6.05;2.60;;;16.20;99.90;;;;;;5092218;28;20478;-44
2023/08/03 01:16:43;;;;;;;6.07;2.25;;;16.20;99.90;;;;;;5092406;28;20115;-43
2023/08/03 01:19:12;;;;;;;6.72;1.80;;;16.20;99.90;;;;;;5092388;28;20039;-43
2023/08/03 01:21:38;;;;;;;6.78;1.88;;;16.20;99.90;;;;;;5092204;28;20024;-43
2023/08/03 01:24:04;;;;;;;5.40;1.48;;;16.30;99.90;;;;;;5091791;28;20035;-44
2023/08/03 01:26:29;;;;;;;5.03;1.88;;;16.20;99.90;;;;;;5092130;28;20027;-44
2023/08/03 01:28:55;;;;;;;6.75;1.67;;;16.30;99.90;;;;;;5074023;28;20363;-44
2023/08/03 01:31:21;;;;;;;10.05;2.03;;;16.30;99.90;;;;;;5092169;28;20388;-45
2023/08/03 01:33:47;;;;;;;6.13;1.83;;;16.30;99.90;;;;;;5091743;28;20433;-45
2023/08/03 01:36:12;;;;;;;6.30;1.95;;;16.40;99.90;;;;;;5073947;28;20201;-46
2023/08/03 01:38:38;;;;;;;11.30;2.25;;;16.40;99.90;;;;;;5091897;28;20489;-44
2023/08/03 01:41:05;;;;;;;9.00;1.90;;;16.40;99.90;;;;;;5092190;28;20012;-43
2023/08/03 01:43:30;;;;;;;8.00;2.45;;;16.50;99.90;;;;;;5091736;28;20028;-45
2023/08/03 01:45:56;;;;;;;4.35;1.75;;;16.40;99.90;;;;;;5073307;28;20047;-47
2023/08/03 01:48:21;;;;;;;10.50;2.35;;;16.40;99.90;;;;;;5091703;28;20150;-44
2023/08/03 01:50:47;;;;;;;5.22;1.80;;;16.40;99.90;;;;;;5091500;28;20026;-43
2023/08/03 01:53:15;;;;;;;4.95;1.40;;;16.50;99.90;;;;;;5091820;28;20063;-43
2023/08/03 01:55:40;;;;;;;8.65;2.33;;;16.50;99.90;;;;;;5091452;28;20427;-48
2023/08/03 01:58:06;;;;;;;4.50;1.88;;;16.40;99.90;;;;;;5091872;28;20032;-44
2023/08/03 02:00:31;;;;;;;8.65;2.25;;;16.50;99.90;;;;;;5091567;28;20041;-43
2023/08/03 02:02:57;;;;;;;6.35;1.45;;;16.50;99.90;;;;;;5091421;28;20028;-43
2023/08/03 02:05:22;;;;;;;7.10;2.40;;;16.50;99.90;;;;;;5073499;28;20069;-45
2023/08/03 02:07:53;;;;;;;3.10;1.60;;;16.50;99.90;;;;;;5091489;28;20054;-44
2023/08/03 02:10:19;;;;;;;;;;;16.50;99.90;;;;;;5092121;28;20024;-45
2023/08/03 02:12:44;;;;;;;7.53;1.80;;;16.50;99.90;;;;;;5091209;28;19991;-44
2023/08/03 02:15:10;;;;;;;8.35;1.80;;;16.50;99.90;;;;;;5090920;28;20049;-44
2023/08/03 02:17:36;;;;;;;4.82;1.70;;;16.50;99.90;;;;;;5091314;28;20028;-43
2023/08/03 02:20:02;;;;;;;4.88;1.70;;;16.60;99.90;;;;;;5073356;28;20469;-47
2023/08/03 02:22:28;;;;;;;6.75;1.98;;;16.60;99.90;;;;;;5090329;28;20027;-44
2023/08/03 02:24:53;;;;;;;8.38;1.80;;;16.60;99.90;;;;;;5090794;28;20020;-47
2023/08/03 03:24:16;;;;;;;6.53;1.60;;;16.90;99.90;;;;;;5113791;27;20159;-45
2023/08/03 03:26:41;;;;;;;8.18;1.77;;;17.00;99.90;;;;;;5065354;28;20036;-45
2023/08/03 03:29:07;;;;;;;5.57;2.00;;;17.00;99.90;;;;;;5089940;28;20024;-44
2023/08/03 03:31:32;;;;;;;6.63;2.42;;;17.00;99.90;;;;;;4992844;28;1342881;-45
2023/08/03 03:33:58;;;;;;;8.60;1.60;;;17.00;99.90;;;;;;5003803;28;20034;-46
2023/08/03 03:36:23;;;;;;;6.70;2.00;;;17.00;99.90;;;;;;5004278;28;20421;-46
2023/08/03 03:38:49;;;;;;;7.90;2.60;;;17.00;99.90;;;;;;5005934;28;20516;-46
2023/08/03 03:41:14;;;;;;;6.53;1.88;;;17.00;99.90;;;;;;5005702;28;20480;-45
2023/08/03 03:43:40;;;;;;;10.18;1.67;;;16.90;99.90;;;;;;5004662;28;20477;-45
2023/08/03 03:46:05;;;;;;;7.18;2.22;;;16.90;99.90;;;;;;5005658;28;20046;-44
2023/08/03 03:48:31;;;;;;;4.15;1.58;;;16.90;99.90;;;;;;5004343;28;20026;-45
2023/08/03 03:50:56;;;;;;;6.18;1.90;;;16.90;99.90;;;;;;5005705;28;20030;-45
2023/08/03 03:53:22;;;;;;;4.07;1.67;;;16.90;99.90;;;;;;5005044;28;20505;-45
2023/08/03 03:55:47;;;;;;;5.95;1.60;;;16.90;99.90;;;;;;5004264;28;20030;-46
2023/08/03 03:58:33;;;;;;;7.22;1.60;;;16.90;99.90;;;;;;5005521;28;20030;-44
2023/08/03 04:00:58;;;;;;;9.45;1.73;;;16.90;99.90;;;;;;5002369;28;20045;-45
2023/08/03 04:03:26;;;;;;;6.68;1.65;;;16.80;99.90;;;;;;4997042;28;20243;-46
2023/08/03 04:05:52;;;;;;;9.23;2.55;;;16.80;99.90;;;;;;5004961;28;20026;-46
2023/08/03 04:08:18;;;;;;;5.85;1.73;;;16.80;99.90;;;;;;5005172;28;20019;-45
2023/08/03 04:10:43;;;;;;;7.65;1.70;;;16.80;99.90;;;;;;5005381;28;20026;-45
2023/08/03 04:13:09;;;;;;;7.32;1.25;;;16.70;99.90;;;;;;5003252;28;20022;-45
2023/08/03 04:15:34;;;;;;;5.72;1.70;;;16.70;99.90;;;;;;5004307;28;20060;-45
2023/08/03 04:18:00;;;;;;;13.68;2.33;;;16.70;99.90;;;;;;5005211;28;20465;-45
2023/08/03 04:20:26;;;;;;;6.53;1.50;;;16.70;99.90;;;;;;5005240;28;20117;-45
2023/08/03 04:22:51;;;;;;;5.15;1.83;;;16.80;99.90;;;;;;5002390;28;20022;-46
2023/08/03 04:25:17;;;;;;;13.63;1.92;;;16.80;99.90;;;;;;4991841;28;20496;-45
2023/08/03 04:27:42;;;;;;;3.70;1.60;;;16.80;99.90;;;;;;4992475;28;20026;-45
2023/08/03 04:30:10;;;;;;;6.28;1.48;;;16.80;99.90;;;;;;4992101;28;20320;-46
2023/08/03 04:32:35;;;;;;;6.70;1.55;;;16.90;99.90;;;;;;5017134;28;20028;-46
2023/08/03 04:35:01;;;;;;;3.08;1.70;;;16.90;99.90;;;;;;5031314;28;20025;-45
2023/08/03 04:37:26;;;;;;;5.70;1.70;;;16.90;99.90;;;;;;5026960;28;20315;-47
2023/08/03 04:39:52;;;;;;;6.35;1.67;;;17.00;99.90;;;;;;5025723;28;20582;-48
2023/08/03 04:42:17;;;;;;;5.28;1.70;;;17.00;99.90;;;;;;5031118;28;20391;-47
2023/08/03 04:44:43;;;;;;;7.38;2.20;;;17.10;99.90;;;;;;5031016;28;20037;-47
2023/08/03 04:47:09;;;;;;;6.65;1.75;;;17.10;99.90;;;;;;5031209;28;20306;-47
2023/08/03 04:49:34;;;;;;;7.35;1.60;;;17.20;99.90;;;;;;5031109;28;20087;-46
2023/08/03 04:52:00;;;;;;;5.47;1.65;;;17.20;99.90;;;;;;5030773;28;20044;-46
2023/08/03 04:54:25;;;;;;;6.28;1.65;;;17.20;99.90;;;;;;5030174;28;20026;-46
2023/08/03 04:56:50;;;;;;;3.92;1.10;;;17.20;99.90;;;;;;5030827;28;20104;-45
2023/08/03 04:59:16;;;;;;;4.15;1.20;;;17.20;99.90;;;;;;5029657;28;20071;-46
2023/08/03 05:01:42;;;;;;;3.60;1.00;;;17.20;99.90;;;;;;5029694;28;20021;-47
2023/08/03 05:04:08;;;;;;;5.07;1.10;;;17.20;99.90;;;;;;5021509;28;20026;-47
2023/08/03 05:06:33;;;;;;;3.25;1.23;;;17.20;99.90;;;;;;5028667;28;20021;-49
2023/08/03 05:08:59;;;;;;;4.47;1.40;;;17.30;99.90;;;;;;5030198;28;20033;-45
2023/08/03 05:11:25;;;;;;;5.65;1.35;;;17.30;99.90;;;;;;5030627;28;20033;-47
2023/08/03 05:13:50;;;;;;;3.80;1.35;;;17.30;99.90;;;;;;5028858;28;20021;-46
2023/08/03 05:16:22;;;;;;;4.35;1.63;;;17.30;99.90;;;;;;5030353;28;20018;-46
2023/08/03 05:18:47;;;;;;;3.67;1.45;;;17.40;99.90;;;;;;5030456;28;20122;-49
2023/08/03 05:21:13;;;;;;;5.15;1.60;;;17.40;99.90;;;;;;5030498;28;20018;-46
2023/08/03 05:23:38;;;;;;;6.25;1.55;;;17.50;99.90;;;;;;5029719;28;20020;-46
2023/08/03 05:26:04;;;;;;;4.72;1.30;;;17.50;99.90;;;;;;5029071;28;20017;-46
2023/08/03 05:28:31;;;;;;;3.95;1.20;;;17.50;99.90;;;;;;5030455;28;20026;-45
2023/08/03 05:30:57;;;;;;;4.35;1.38;;;17.50;99.90;;;;;;5030514;28;20373;-47
2023/08/03 05:33:22;;;;;;;4.13;1.25;;;17.50;99.90;;;;;;5029267;28;20028;-47
2023/08/03 05:35:48;;;;;;;2.33;1.00;;;17.50;99.90;;;;;;5028838;28;20079;-46
2023/08/03 05:38:14;;;;;;;3.22;1.40;;;17.50;99.90;;;;;;5029928;28;20018;-46
2023/08/03 05:40:40;;;;;;;3.78;1.00;;;17.60;99.90;;;;;;5029983;28;20490;-46
2023/08/03 05:43:13;;;;;;;4.95;1.67;;;17.60;99.90;;;;;;5028076;28;20018;-46
2023/08/03 05:45:43;;;;;;;5.13;1.48;;;17.50;99.90;;;;;;5029885;28;20017;-46
2023/08/03 05:48:22;;;;;;;3.80;1.35;;;17.60;99.90;;;;;;5029862;28;20249;-47
2023/08/03 05:50:49;;;;;;;3.88;1.30;;;17.50;99.90;;;;;;5029807;28;20021;-46
2023/08/03 05:53:15;;;;;;;4.00;1.30;;;17.50;99.90;;;;;;5029087;28;20021;-45
2023/08/03 05:55:41;;;;;;;7.07;1.55;;;17.50;99.90;;;;;;5029590;28;20484;-46
2023/08/03 05:58:12;;;;;;;7.22;1.73;;;17.50;99.90;;;;;;5029685;28;20303;-46
2023/08/03 06:00:40;;;;;;;4.78;1.23;;;17.60;99.90;;;;;;5029533;28;20082;-45
2023/08/03 06:03:12;;;;;;;2.95;1.35;;;17.60;99.90;;;;;;5011161;28;20029;-45
2023/08/03 06:05:38;;;;;;;4.20;1.40;;;17.70;99.90;;;;;;5029812;28;20377;-48
2023/08/03 06:08:21;;;;;;;2.53;1.40;;;17.80;99.90;;;;;;5029301;28;20028;-46
2023/08/03 06:10:50;;;;;;;2.65;1.05;;;17.90;99.90;;;;;;5011747;28;20082;-46
2023/08/03 06:13:18;;;;;;;2.13;1.30;;;18.00;99.90;;;;;;5028889;28;20029;-46
2023/08/03 06:15:45;;;;;;;4.78;1.48;;;18.00;99.90;;;;;;5029624;28;20045;-48
2023/08/03 06:18:15;;;;;;;5.53;1.50;;;18.10;99.90;;;;;;5029521;28;20165;-45
2023/08/03 06:20:44;;;;;;;3.67;1.20;;;18.10;99.90;;;;;;5029387;28;20021;-47
2023/08/03 06:23:30;;;;;;;4.75;1.10;;;18.10;99.90;;;;;;5028497;28;20037;-48
2023/08/03 06:25:57;;;;;;;5.72;1.38;;;18.10;99.90;;;;;;5011469;28;20029;-45
2023/08/03 06:28:23;;;;;;;3.88;1.13;;;18.00;99.90;;;;;;5029278;28;20022;-46
2023/08/03 06:30:51;;;;;;;3.85;1.42;;;18.00;99.90;;;;;;5029014;28;20021;-45
2023/08/03 06:33:18;;;;;;;3.33;1.27;;;18.00;99.90;;;;;;5028237;28;20443;-45
2023/08/03 06:35:46;;;;;;;4.47;1.00;;;18.10;99.90;;;;;;5028988;28;20130;-47
2023/08/03 06:38:14;;;;;;;4.13;1.35;;;18.10;99.90;;;;;;5011505;28;20052;-46
2023/08/03 06:41:00;;;;;;;4.25;1.17;;;18.20;99.90;;;;;;5029037;28;20147;-45
2023/08/03 06:43:25;;;;;;;4.63;1.38;;;18.20;99.90;;;;;;5005936;28;20081;-46
2023/08/03 06:45:51;;;;;;;2.95;0.98;;;18.20;99.90;;;;;;5006035;28;20037;-46
2023/08/03 06:48:16;;;;;;;2.97;1.23;;;18.20;99.90;;;;;;5024182;28;20099;-46
2023/08/03 06:50:42;;;;;;;4.53;1.83;;;18.20;99.90;;;;;;5028770;28;20029;-46
2023/08/03 06:53:08;;;;;;;3.20;1.42;;;18.30;99.90;;;;;;5028629;28;20036;-45
2023/08/03 06:55:34;;;;;;;2.47;1.10;;;18.30;99.90;;;;;;5028908;28;20093;-46
2023/08/03 06:57:59;;;;;;;2.63;0.82;;;18.40;99.90;;;;;;5029297;28;20350;-45
2023/08/03 07:00:26;;;;;;;3.25;1.33;;;18.40;99.90;;;;;;5027663;28;20100;-47
2023/08/03 07:02:52;;;;;;;2.63;1.02;;;18.50;99.90;;;;;;5027834;28;20087;-46
2023/08/03 07:05:18;;;;;;;2.45;0.98;;;18.50;99.90;;;;;;5028596;28;20103;-49
2023/08/03 07:07:43;;;;;;;3.80;1.30;;;18.50;99.90;;;;;;5010959;28;20026;-47
2023/08/03 07:10:09;;;;;;;3.50;1.30;;;18.50;99.90;;;;;;5028678;28;20025;-49
2023/08/03 07:12:35;;;;;;;5.65;1.15;;;18.50;99.90;;;;;;5010053;28;20021;-46
2023/08/03 07:15:01;;;;;;;4.30;1.13;;;18.50;99.90;;;;;;5028567;28;20029;-46
2023/08/03 07:17:26;;;;;;;2.25;1.05;;;18.60;99.90;;;;;;5029000;28;20381;-47
2023/08/03 07:19:52;;;;;;;3.95;1.05;;;18.60;99.90;;;;;;5028932;28;20026;-48
2023/08/03 07:22:21;;;;;;;3.70;1.10;;;18.60;99.90;;;;;;5010602;28;20018;-48
2023/08/03 07:24:47;;;;;;;2.22;0.85;;;18.60;99.90;;;;;;5028618;28;20037;-48
2023/08/03 07:27:14;;;;;;;3.35;0.90;;;18.60;99.90;;;;;;5035458;28;20020;-48
2023/08/03 07:29:40;;;;;;;1.10;0.90;;;18.50;99.90;;;;;;5010544;28;20134;-47
2023/08/03 07:32:06;;;;;;;3.50;1.10;;;18.50;99.90;;;;;;5028109;28;20120;-47
2023/08/03 07:34:32;;;;;;;2.63;0.88;;;18.60;99.90;;;;;;5027732;28;20081;-46
2023/08/03 07:36:59;;;;;;;8.02;0.90;;;18.50;99.90;;;;;;5010679;28;20114;-46
2023/08/03 07:39:25;;;;;;;1.85;1.00;;;18.60;99.90;;;;;;5010717;28;20430;-49
2023/08/03 07:41:51;;;;;;;3.40;0.82;;;18.50;99.90;;;;;;5028003;28;20082;-49
2023/08/03 07:44:17;;;;;;;2.55;0.90;;;18.50;99.90;;;;;;5027536;28;20502;-49
2023/08/03 07:46:43;;;;;;;1.70;1.00;;;18.50;99.90;;;;;;5027851;28;20575;-49
2023/08/03 07:49:08;;;;;;;1.88;0.90;;;18.60;99.90;;;;;;5009591;28;20025;-49
2023/08/03 07:51:34;;;;;;;2.58;0.93;;;18.60;99.90;;;;;;5020203;28;20080;-48
2023/08/03 07:53:59;;;;;;;2.42;1.02;;;18.60;99.90;;;;;;5027790;28;20515;-46
2023/08/03 07:56:25;;;;;;;4.50;0.90;;;18.70;99.90;;;;;;5028532;28;20022;-47
2023/08/03 07:58:51;;;;;;;2.33;0.80;;;18.70;99.90;;;;;;5029510;28;20017;-46
2023/08/03 08:01:18;;;;;;;2.30;0.98;;;18.80;99.90;;;;;;5031975;28;20472;-46
2023/08/03 08:03:44;;;;;;;2.92;1.23;;;18.80;99.90;;;;;;5031553;28;20025;-49
2023/08/03 08:06:14;;;;;;;1.85;0.85;;;18.70;99.90;;;;;;5031664;28;20074;-46
2023/08/03 08:08:40;;;;;;;2.53;1.00;;;18.60;99.90;;;;;;5032339;28;20084;-46
2023/08/03 08:11:07;;;;;;;1.15;0.70;;;18.60;99.90;;;;;;5032509;28;20025;-48
2023/08/03 08:13:33;;;;;;;0.70;0.70;;;18.60;99.90;;;;;;5031518;28;20033;-45
2023/08/03 08:16:04;;;;;;;3.58;1.45;;;18.70;99.90;;;;;;5031652;28;20017;-47
2023/08/03 08:18:30;;;;;;;;;;;18.70;99.90;;;;;;5031962;28;20488;-46
2023/08/03 08:20:56;;;;;;;1.38;0.80;;;18.80;99.90;;;;;;4986320;28;19960;-45
2023/08/03 08:23:22;;;;;;;1.90;0.75;;;18.80;99.90;;;;;;4990164;28;20042;-49
2023/08/03 08:25:48;;;;;;;1.45;0.80;;;18.90;99.90;;;;;;5027008;28;20029;-46
2023/08/03 08:28:13;;;;;;;2.35;1.00;;;18.90;99.90;;;;;;5031482;28;20384;-46
2023/08/03 08:30:39;;;;;;;3.88;1.00;;;19.00;99.90;;;;;;5031394;28;20026;-45
2023/08/03 08:33:04;;;;;;;1.23;0.82;;;19.10;99.90;;;;;;5030542;28;20029;-47
2023/08/03 08:35:31;;;;;;;3.33;0.90;;;19.10;99.90;;;;;;5031326;28;20022;-47
2023/08/03 08:37:59;;;;;;;4.28;0.93;;;19.10;99.90;;;;;;5031345;28;20014;-46
2023/08/03 08:40:25;;;;;;;2.90;0.93;;;19.10;99.90;;;;;;5030899;28;20155;-47
2023/08/03 08:42:55;;;;;;;2.63;1.00;;;19.20;99.90;;;;;;5012672;28;20108;-49
2023/08/03 08:45:20;;;;;;;4.70;0.90;;;19.30;99.90;;;;;;5030893;28;20114;-50
2023/08/03 08:47:46;;;;;;;1.40;0.88;;;19.30;99.90;;;;;;5030976;28;20175;-47
2023/08/03 08:50:12;;;;;;;1.77;0.90;;;19.40;99.90;;;;;;5031027;28;20022;-48
2023/08/03 08:52:42;;;;;;;4.88;1.00;;;19.40;99.90;;;;;;5030109;28;20026;-47
2023/08/03 08:55:14;;;;;;;1.52;1.05;;;19.40;99.90;;;;;;5031035;28;20071;-47
2023/08/03 08:57:40;;;;;;;1.95;1.30;;;19.40;99.90;;;;;;5030963;28;20542;-46
2023/08/03 09:00:07;;;;;;;1.38;0.80;;;19.40;99.90;;;;;;5031088;28;20101;-48
2023/08/03 09:02:34;;;;;;;6.88;1.25;;;19.20;99.90;;;;;;5030347;28;20021;-47
2023/08/03 09:05:19;;;;;;;2.60;1.00;;;19.30;99.90;;;;;;5031000;28;20024;-49
2023/08/03 09:07:45;;;;;;;1.42;1.10;;;19.10;99.90;;;;;;5030658;28;20026;-49
2023/08/03 09:10:11;;;;;;;0.88;0.88;;;19.00;99.90;;;;;;5030707;28;20559;-48
2023/08/03 09:12:38;;;;;;;1.10;0.90;;;18.90;99.90;;;;;;5030150;28;20068;-49
2023/08/03 09:15:05;;;;;;;2.60;1.20;;;18.80;99.90;;;;;;5030883;28;20013;-46
2023/08/03 09:17:31;;;;;;;1.40;1.20;;;18.70;99.90;;;;;;5030241;28;20026;-49
2023/08/03 09:19:57;;;;;;;1.67;1.20;;;18.60;99.90;;;;;;5028035;28;20518;-47
2023/08/03 09:22:24;;;;;;;1.08;0.90;;;18.70;99.90;;;;;;5028762;28;20029;-45
2023/08/03 09:25:19;;;;;;;1.42;0.95;;;18.90;99.90;;;;;;5010686;28;20510;-46
2023/08/03 09:27:52;;;;;;;1.50;0.93;;;19.40;99.90;;;;;;5013356;28;20041;-49
2023/08/03 09:30:18;;;;;;;1.08;0.80;;;19.80;99.90;;;;;;5028527;28;20091;-48
2023/08/03 09:32:45;;;;;;;2.17;0.70;;;20.30;99.90;;;;;;5010293;28;20022;-47
2023/08/03 09:35:21;;;;;;;1.75;0.60;;;21.40;99.90;;;;;;5030329;28;20017;-45
2023/08/03 09:37:48;;;;;;;1.27;0.70;;;22.80;99.90;;;;;;5030110;28;20044;-49
2023/08/03 09:40:17;;;;;;;1.42;0.75;;;23.60;99.90;;;;;;5029765;28;20057;-48
2023/08/03 09:42:44;;;;;;;1.23;0.70;;;25.10;99.90;;;;;;5029448;28;20022;-46
2023/08/03 09:45:10;;;;;;;0.50;0.50;;;26.20;99.20;;;;;;5012309;28;20095;-46
2023/08/03 09:47:35;;;;;;;0.93;0.52;;;27.10;96.60;;;;;;5029854;28;20013;-46
2023/08/03 09:50:02;;;;;;;2.17;0.50;;;27.20;95.00;;;;;;5029812;28;20041;-49
2023/08/03 09:52:29;;;;;;;1.30;0.50;;;26.60;94.20;;;;;;5025329;28;20139;-48
2023/08/03 09:55:13;;;;;;;1.85;0.70;;;25.90;95.20;;;;;;5026468;28;20021;-48
2023/08/03 09:57:46;;;;;;;2.17;0.52;;;24.90;95.80;;;;;;5028751;28;20060;-47
2023/08/03 10:00:13;;;;;;;1.55;0.70;;;23.60;98.00;;;;;;5028615;28;20342;-47
2023/08/03 10:02:52;;;;;;;1.25;0.50;;;22.80;99.90;;;;;;5027941;28;20487;-48
2023/08/03 10:05:19;;;;;;;0.65;0.50;;;22.10;99.90;;;;;;5028308;28;20045;-48
2023/08/03 10:07:59;;;;;;;0.93;0.65;;;21.40;99.90;;;;;;5028618;28;20531;-46
2023/08/03 10:10:26;;;;;;;3.60;0.60;;;20.90;99.90;;;;;;5027955;28;20036;-46
2023/08/03 10:12:57;;;;;;;0.60;0.60;;;20.60;99.90;;;;;;5011135;28;20083;-46
2023/08/03 10:15:24;;;;;;;0.52;0.52;;;20.40;99.90;;;;;;5038876;28;20487;-46
2023/08/03 10:17:51;;;;;;;4.13;0.63;;;20.10;99.90;;;;;;5049281;28;20479;-46
2023/08/03 10:20:17;;;;;;;3.03;1.30;;;20.00;99.90;;;;;;5042077;28;20480;-49
2023/08/03 10:23:11;;;;;;;1.17;0.77;;;19.90;99.90;;;;;;5028220;28;20032;-45
2023/08/03 10:25:56;;;;;;;1.48;0.90;;;19.80;99.90;;;;;;5018209;28;20021;-46
2023/08/03 10:28:37;;;;;;;8.60;0.70;;;19.60;99.90;;;;;;5023148;28;20488;-46
2023/08/03 10:31:30;;;;;;;1.35;0.88;;;19.60;99.90;;;;;;5010175;28;20499;-46
2023/08/03 10:33:55;;;;;;;1.23;0.70;;;19.50;99.90;;;;;;5024766;28;20083;-44
2023/08/03 10:36:38;;;;;;;0.52;0.52;;;19.30;99.90;;;;;;5026476;28;20422;-46
2023/08/03 10:39:09;;;;;;;1.70;0.70;;;19.30;99.90;;;;;;5028006;28;20021;-47
2023/08/03 10:41:40;;;;;;;1.67;0.88;;;19.20;99.90;;;;;;5027967;28;20021;-46
2023/08/03 10:44:05;;;;;;;2.10;0.98;;;19.50;99.90;;;;;;5027892;28;20030;-45
2023/08/03 10:46:39;;;;;;;0.85;0.85;;;19.80;99.90;;;;;;5027441;28;20025;-44
2023/08/03 10:49:20;;;;;;;0.63;0.60;;;20.20;99.90;;;;;;5010198;28;20013;-44
2023/08/03 10:51:46;;;;;;;0.43;0.43;;;20.40;99.90;;;;;;5021324;28;20101;-45
2023/08/03 10:54:12;;;;;;;0.95;0.68;;;20.10;99.90;;;;;;5027612;28;20044;-45
2023/08/03 10:56:37;;;;;;;1.17;0.80;;;19.90;99.90;;;;;;5010100;28;20390;-45
2023/08/03 10:59:04;;;;;;;1.10;0.60;;;19.60;99.90;;;;;;5027318;28;20476;-45
2023/08/03 11:01:30;;;;;;;0.88;0.60;;;20.00;99.90;;;;;;5027113;28;20343;-44
2023/08/03 11:03:56;;;;;;;0.88;0.40;;;20.40;99.90;;;;;;5027409;28;20530;-45
2023/08/03 11:06:24;;;;;;;1.20;0.50;;;20.40;99.90;;;;;;5009265;28;20022;-46
2023/08/03 11:08:50;;;;;;;0.30;0.30;;;20.40;99.90;;;;;;5027442;28;20083;-47
2023/08/03 11:11:21;;;;;;;0.73;0.40;;;20.70;99.90;;;;;;5027844;28;20480;-46
2023/08/03 11:13:47;;;;;;;0.30;0.30;;;20.70;99.90;;;;;;5009331;28;20097;-45
2023/08/03 11:16:20;;;;;;;0.40;0.40;;;20.60;99.90;;;;;;5009810;28;20023;-44
2023/08/03 11:18:46;;;;;;;1.80;0.52;;;20.30;99.90;;;;;;5027544;28;20014;-45
2023/08/03 11:21:12;;;;;;;0.40;0.40;;;20.20;99.90;;;;;;5009890;28;20105;-46
2023/08/03 11:23:37;;;;;;;0.45;0.32;;;20.20;99.90;;;;;;5027377;28;20056;-46
2023/08/03 11:26:06;;;;;;;0.40;0.40;;;20.70;99.90;;;;;;5027515;28;20535;-46
2023/08/03 11:28:41;;;;;;;0.93;0.43;;;21.50;99.90;;;;;;5025691;28;20029;-45
2023/08/03 11:31:16;;;;;;;0.30;0.30;;;22.40;99.90;;;;;;5027428;28;20508;-47
2023/08/03 11:33:55;;;;;;;0.20;0.20;;;23.40;99.90;;;;;;5010621;28;20022;-45
2023/08/03 11:36:22;;;;;;;0.90;0.40;;;24.30;99.90;;;;;;5031569;28;20092;-45
2023/08/03 11:38:48;;;;;;;1.48;0.45;;;24.50;99.90;;;;;;5029943;28;20108;-45
2023/08/03 11:41:16;;;;;;;0.50;0.50;;;24.10;99.90;;;;;;5030179;28;20028;-45
2023/08/03 11:43:42;;;;;;;1.08;0.50;;;23.20;99.90;;;;;;5030926;28;20026;-45
2023/08/03 11:46:07;;;;;;;0.30;0.30;;;22.80;99.90;;;;;;5031295;28;20087;-45
2023/08/03 11:48:33;;;;;;;0.55;0.50;;;22.10;99.90;;;;;;5019713;28;20065;-45
2023/08/03 11:50:59;;;;;;;0.73;0.55;;;22.00;99.90;;;;;;5023167;28;20018;-45
2023/08/03 11:53:31;;;;;;;0.95;0.50;;;21.80;99.90;;;;;;5024779;28;20096;-44
2023/08/03 11:56:00;;;;;;;2.40;0.40;;;21.30;99.90;;;;;;5027567;28;20049;-45
2023/08/03 11:58:26;;;;;;;0.43;0.43;;;20.90;99.90;;;;;;5031105;28;20030;-45
2023/08/03 12:00:59;;;;;;;0.82;0.60;;;20.60;99.90;;;;;;5030541;28;20459;-45
2023/08/03 12:03:36;;;;;;;0.45;0.45;;;20.50;99.90;;;;;;5012280;28;20034;-44
2023/08/03 12:06:09;;;;;;;0.63;0.30;;;20.20;99.90;;;;;;5030980;28;20518;-45
2023/08/03 12:08:45;;;;;;;2.55;0.80;;;21.20;99.90;;;;;;5031028;28;20049;-45
2023/08/03 12:11:15;;;;;;;0.50;0.47;;;21.20;99.90;;;;;;5030986;28;20033;-46
2023/08/03 12:13:41;;;;;;;1.13;0.70;;;21.20;99.90;;;;;;5029847;28;20075;-45
2023/08/03 12:16:06;;;;;;;2.25;0.70;;;21.40;99.90;;;;;;5029998;28;20268;-46
2023/08/03 12:18:32;;;;;;;0.70;0.50;;;22.10;99.90;;;;;;5032109;28;20025;-45
2023/08/03 12:20:57;;;;;;;0.60;0.60;;;22.20;99.90;;;;;;5031762;28;20516;-45
2023/08/03 12:23:23;;;;;;;1.13;0.60;;;22.70;99.90;;;;;;5030398;28;20021;-44
2023/08/03 12:25:48;;;;;;;1.05;0.57;;;22.40;99.90;;;;;;5031569;28;20541;-44
2023/08/03 12:28:14;;;;;;;0.63;0.63;;;22.30;99.90;;;;;;5031694;28;20423;-46
2023/08/03 12:30:40;;;;;;;1.27;0.60;;;22.60;99.90;;;;;;5030577;28;20033;-45
2023/08/03 12:33:07;;;;;;;0.55;0.50;;;22.70;99.90;;;;;;5030764;28;20033;-44
2023/08/03 12:35:32;;;;;;;1.48;0.60;;;22.50;99.90;;;;;;5030422;28;20567;-45
2023/08/03 12:37:58;;;;;;;0.45;0.45;;;22.50;99.90;;;;;;5031617;28;20025;-45
2023/08/03 12:40:23;;;;;;;6.80;0.95;;;22.00;99.90;;;;;;5031034;28;20101;-45
2023/08/03 12:42:49;;;;;;;0.50;0.50;;;21.90;99.90;;;;;;5030623;28;20083;-44
2023/08/03 12:45:14;;;;;;;0.73;0.50;;;21.70;99.90;;;;;;5030895;28;20029;-44
2023/08/03 12:47:40;;;;;;;0.52;0.52;;;21.70;99.90;;;;;;5031231;28;20060;-46
2023/08/03 12:50:06;;;;;;;0.90;0.77;;;21.70;99.90;;;;;;5029329;28;20433;-46
2023/08/03 12:52:32;;;;;;;0.60;0.60;;;21.30;99.90;;;;;;5012554;28;20492;-45
2023/08/03 12:54:58;;;;;;;1.10;0.60;;;20.70;99.90;;;;;;5031043;28;20022;-45
2023/08/03 12:57:25;;;;;;;0.50;0.50;;;20.30;99.90;;;;;;5030916;28;20022;-45
2023/08/03 12:59:51;;;;;;;2.10;1.05;;;19.90;99.90;;;;;;5030788;28;20020;-45
2023/08/03 13:02:16;;;;;;;1.88;0.85;;;19.80;99.90;;;;;;5030867;28;20017;-45
2023/08/03 13:04:42;;;;;;;0.80;0.80;;;19.60;99.90;;;;;;5030524;28;20295;-45
2023/08/03 13:07:08;;;;;;;1.13;0.85;;;19.50;99.90;;;;;;5030455;28;20108;-45
2023/08/03 13:09:33;;;;;;;0.95;0.93;;;19.40;99.90;;;;;;5029585;28;20025;-45
2023/08/03 13:11:59;;;;;;;2.90;0.85;;;19.30;99.90;;;;;;5029554;28;20030;-45
2023/08/03 13:14:24;;;;;;;0.80;0.80;;;19.30;99.90;;;;;;5029711;28;20466;-45
2023/08/03 13:16:50;;;;;;;1.73;0.95;;;19.20;99.90;;;;;;5029981;28;20029;-45
2023/08/03 13:19:16;;;;;;;2.20;1.30;;;19.10;99.90;;;;;;5030457;28;20530;-45
2023/08/03 13:21:42;;;;;;;1.23;1.00;;;19.00;99.90;;;;;;5031272;28;20107;-46
2023/08/03 13:24:07;;;;;;;1.33;1.23;;;19.00;99.90;;;;;;5029190;28;20021;-45
2023/08/03 13:26:33;;;;;;;1.98;1.10;;;19.00;99.90;;;;;;5029693;28;20021;-45
2023/08/03 13:28:58;;;;;;;3.17;1.30;;;19.00;99.90;;;;;;5030091;28;20048;-45
2023/08/03 13:31:24;;;;;;;1.30;1.20;;;18.90;99.90;;;;;;5029601;28;20064;-45
2023/08/03 13:33:50;;;;;;;2.00;1.30;;;19.00;99.90;;;;;;5029740;28;20527;-46
2023/08/03 13:36:15;;;;;;;2.05;1.30;;;19.10;99.90;;;;;;5030223;28;20025;-45
2023/08/03 13:38:40;;;;;;;1.48;1.33;;;19.20;99.90;;;;;;5029768;28;20028;-45
2023/08/03 13:41:06;;;;;;;1.90;1.27;;;19.10;99.90;;;;;;5030035;28;20024;-46
2023/08/03 13:43:32;;;;;;;1.58;1.08;;;19.20;99.90;;;;;;5029656;28;20443;-45
2023/08/03 13:45:57;;;;;;;2.60;1.20;;;19.20;99.90;;;;;;5029296;28;20029;-44